LRS718 MRLM-MRLB
Flight info
| Callsign | LRS718 |
|---|---|
| Flight time | 0h 59m |
| Altitude | 8000 |
| Route | SASAY |
| Aircraft | C208/L-SDFGR/C |
Departure
| Time | 2026-04-29 01:36 |
|---|---|
| Airport | Limón International Airport (MRLM) |
Arrival
| Time | 2026-04-29 02:35 |
|---|---|
| Airport | Daniel Oduber Quirós International Airport (MRLB) |
| Time | Latitude | Longitude | Altitude | Speed | Heading |
|---|---|---|---|---|---|
| 2026-04-29 01:29 | 9.96325 | -83.02604 | 14 ft | 0 kts | 144° |
| 2026-04-29 01:32 | 9.96320 | -83.02600 | 14 ft | 0 kts | 138° |
| 2026-04-29 01:32 | 9.96316 | -83.02593 | 14 ft | 0 kts | 56° |
| 2026-04-29 01:32 | 9.96356 | -83.02611 | 14 ft | 11 kts | 331° |
| 2026-04-29 01:33 | 9.96431 | -83.02627 | 14 ft | 10 kts | 347° |
| 2026-04-29 01:33 | 9.96453 | -83.02641 | 14 ft | 0 kts | 233° |
| 2026-04-29 01:33 | 9.96447 | -83.02647 | 14 ft | 0 kts | 202° |
| 2026-04-29 01:33 | 9.96437 | -83.02644 | 14 ft | 3 kts | 123° |
| 2026-04-29 01:34 | 9.96413 | -83.02621 | 14 ft | 0 kts | 147° |
| 2026-04-29 01:34 | 9.96398 | -83.02611 | 14 ft | 8 kts | 146° |
| 2026-04-29 01:35 | 9.96245 | -83.02508 | 14 ft | 56 kts | 147° |
| 2026-04-29 01:35 | 9.95746 | -83.02173 | 19 ft | 109 kts | 145° |
| 2026-04-29 01:35 | 9.95084 | -83.01709 | 241 ft | 118 kts | 140° |
| 2026-04-29 01:35 | 9.94437 | -83.01202 | 567 ft | 117 kts | 139° |
| 2026-04-29 01:36 | 9.93800 | -83.00700 | 886 ft | 116 kts | 141° |
| 2026-04-29 01:36 | 9.93012 | -83.00520 | 1103 ft | 129 kts | 188° |
| 2026-04-29 01:36 | 9.92210 | -83.00998 | 1289 ft | 141 kts | 232° |
| 2026-04-29 01:36 | 9.91938 | -83.01949 | 1522 ft | 144 kts | 278° |
| 2026-04-29 01:37 | 9.92354 | -83.02856 | 1778 ft | 143 kts | 306° |
| 2026-04-29 01:37 | 9.92880 | -83.03715 | 2048 ft | 143 kts | 302° |
| 2026-04-29 01:37 | 9.93353 | -83.04597 | 2305 ft | 143 kts | 298° |
| 2026-04-29 01:37 | 9.93784 | -83.05506 | 2559 ft | 144 kts | 296° |
| 2026-04-29 01:38 | 9.94204 | -83.06433 | 2814 ft | 144 kts | 295° |
| 2026-04-29 01:38 | 9.94607 | -83.07363 | 3064 ft | 145 kts | 294° |
| 2026-04-29 01:38 | 9.95010 | -83.08302 | 3316 ft | 145 kts | 294° |
| 2026-04-29 01:38 | 9.95407 | -83.09235 | 3561 ft | 145 kts | 295° |
| 2026-04-29 01:39 | 9.95811 | -83.10182 | 3810 ft | 144 kts | 295° |
| 2026-04-29 01:39 | 9.96204 | -83.11105 | 4046 ft | 144 kts | 295° |
| 2026-04-29 01:39 | 9.96605 | -83.12044 | 4281 ft | 145 kts | 295° |
| 2026-04-29 01:39 | 9.97006 | -83.12987 | 4514 ft | 146 kts | 295° |
| 2026-04-29 01:40 | 9.97417 | -83.13952 | 4768 ft | 150 kts | 296° |
| 2026-04-29 01:40 | 9.97828 | -83.14919 | 5019 ft | 151 kts | 296° |
| 2026-04-29 01:40 | 9.98247 | -83.15902 | 5283 ft | 152 kts | 296° |
| 2026-04-29 01:40 | 9.98667 | -83.16885 | 5546 ft | 152 kts | 295° |
| 2026-04-29 01:41 | 9.99089 | -83.17880 | 5815 ft | 152 kts | 296° |
| 2026-04-29 01:41 | 9.99509 | -83.18862 | 6065 ft | 152 kts | 295° |
| 2026-04-29 01:41 | 9.99927 | -83.19841 | 6313 ft | 152 kts | 295° |
| 2026-04-29 01:41 | 10.00347 | -83.20831 | 6575 ft | 152 kts | 295° |
| 2026-04-29 01:42 | 10.00769 | -83.21819 | 6826 ft | 152 kts | 295° |
| 2026-04-29 01:42 | 10.01182 | -83.22791 | 7059 ft | 152 kts | 295° |
| 2026-04-29 01:42 | 10.01600 | -83.23782 | 7306 ft | 151 kts | 296° |
| 2026-04-29 01:42 | 10.02016 | -83.24757 | 7552 ft | 152 kts | 296° |
| 2026-04-29 01:43 | 10.02439 | -83.25746 | 7799 ft | 152 kts | 296° |
| 2026-04-29 01:43 | 10.02857 | -83.26731 | 8034 ft | 152 kts | 296° |
| 2026-04-29 01:43 | 10.03283 | -83.27725 | 8110 ft | 163 kts | 296° |
| 2026-04-29 01:43 | 10.03754 | -83.28833 | 8091 ft | 174 kts | 295° |
| 2026-04-29 01:44 | 10.04240 | -83.29981 | 8103 ft | 180 kts | 295° |
| 2026-04-29 01:44 | 10.04738 | -83.31155 | 8099 ft | 183 kts | 295° |
| 2026-04-29 01:44 | 10.05252 | -83.32357 | 8094 ft | 185 kts | 295° |
| 2026-04-29 01:44 | 10.05760 | -83.33547 | 8097 ft | 186 kts | 295° |
| 2026-04-29 01:45 | 10.06273 | -83.34757 | 8096 ft | 187 kts | 296° |
| 2026-04-29 01:45 | 10.06786 | -83.35964 | 8094 ft | 186 kts | 296° |
| 2026-04-29 01:45 | 10.07298 | -83.37171 | 8101 ft | 185 kts | 295° |
| 2026-04-29 01:45 | 10.07811 | -83.38382 | 8106 ft | 185 kts | 295° |
| 2026-04-29 01:46 | 10.08318 | -83.39572 | 8125 ft | 185 kts | 296° |
| 2026-04-29 01:46 | 10.08837 | -83.40795 | 8123 ft | 187 kts | 295° |
| 2026-04-29 01:46 | 10.09351 | -83.41997 | 8119 ft | 187 kts | 295° |
| 2026-04-29 01:46 | 10.09869 | -83.43218 | 8110 ft | 188 kts | 296° |
| 2026-04-29 01:47 | 10.10384 | -83.44435 | 8113 ft | 187 kts | 295° |
| 2026-04-29 01:47 | 10.10899 | -83.45647 | 8114 ft | 187 kts | 295° |
| 2026-04-29 01:47 | 10.11414 | -83.46860 | 8125 ft | 187 kts | 295° |
| 2026-04-29 01:47 | 10.11932 | -83.48080 | 8127 ft | 187 kts | 295° |
| 2026-04-29 01:48 | 10.12445 | -83.49286 | 8124 ft | 187 kts | 295° |
| 2026-04-29 01:48 | 10.12959 | -83.50494 | 8134 ft | 187 kts | 295° |
| 2026-04-29 01:48 | 10.13477 | -83.51711 | 8142 ft | 187 kts | 295° |
| 2026-04-29 01:48 | 10.13995 | -83.52931 | 8144 ft | 188 kts | 295° |
| 2026-04-29 01:49 | 10.14510 | -83.54145 | 8143 ft | 188 kts | 295° |
| 2026-04-29 01:49 | 10.15026 | -83.55364 | 8140 ft | 188 kts | 295° |
| 2026-04-29 01:49 | 10.15549 | -83.56590 | 8145 ft | 188 kts | 296° |
| 2026-04-29 01:49 | 10.16061 | -83.57800 | 8151 ft | 187 kts | 295° |
| 2026-04-29 01:50 | 10.16582 | -83.59024 | 8153 ft | 187 kts | 295° |
| 2026-04-29 01:50 | 10.17097 | -83.60243 | 8156 ft | 188 kts | 296° |
| 2026-04-29 01:50 | 10.17612 | -83.61455 | 8160 ft | 187 kts | 295° |
| 2026-04-29 01:50 | 10.18129 | -83.62676 | 8169 ft | 187 kts | 295° |
| 2026-04-29 01:51 | 10.18647 | -83.63899 | 8165 ft | 188 kts | 295° |
| 2026-04-29 01:51 | 10.19160 | -83.65110 | 8162 ft | 188 kts | 295° |
| 2026-04-29 01:51 | 10.19679 | -83.66335 | 8162 ft | 188 kts | 295° |
| 2026-04-29 01:51 | 10.20197 | -83.67554 | 8154 ft | 188 kts | 295° |
| 2026-04-29 01:52 | 10.20718 | -83.68787 | 8153 ft | 188 kts | 296° |
| 2026-04-29 01:52 | 10.21232 | -83.70000 | 8142 ft | 188 kts | 295° |
| 2026-04-29 01:52 | 10.21752 | -83.71224 | 8143 ft | 188 kts | 295° |
| 2026-04-29 01:52 | 10.22271 | -83.72449 | 8144 ft | 188 kts | 295° |
| 2026-04-29 01:53 | 10.22782 | -83.73656 | 8133 ft | 188 kts | 295° |
| 2026-04-29 01:53 | 10.23301 | -83.74882 | 8128 ft | 187 kts | 295° |
| 2026-04-29 01:53 | 10.23809 | -83.76083 | 8129 ft | 186 kts | 295° |
| 2026-04-29 01:53 | 10.24323 | -83.77296 | 8144 ft | 186 kts | 295° |
| 2026-04-29 01:54 | 10.24836 | -83.78511 | 8144 ft | 187 kts | 295° |
| 2026-04-29 01:54 | 10.25350 | -83.79728 | 8134 ft | 188 kts | 295° |
| 2026-04-29 01:54 | 10.25866 | -83.80948 | 8133 ft | 189 kts | 295° |
| 2026-04-29 01:54 | 10.26382 | -83.82172 | 8125 ft | 188 kts | 295° |
| 2026-04-29 01:55 | 10.26900 | -83.83395 | 8134 ft | 188 kts | 295° |
| 2026-04-29 01:55 | 10.27416 | -83.84615 | 8137 ft | 187 kts | 296° |
| 2026-04-29 01:55 | 10.27928 | -83.85823 | 8148 ft | 187 kts | 296° |
| 2026-04-29 01:55 | 10.28442 | -83.87035 | 8155 ft | 187 kts | 295° |
| 2026-04-29 01:56 | 10.28963 | -83.88266 | 8149 ft | 188 kts | 295° |
| 2026-04-29 01:56 | 10.29476 | -83.89482 | 8150 ft | 188 kts | 295° |
| 2026-04-29 01:56 | 10.29989 | -83.90694 | 8150 ft | 188 kts | 295° |
| 2026-04-29 01:56 | 10.30505 | -83.91908 | 8149 ft | 187 kts | 295° |
| 2026-04-29 01:57 | 10.31015 | -83.93118 | 8170 ft | 186 kts | 295° |
| 2026-04-29 01:57 | 10.31529 | -83.94333 | 8171 ft | 187 kts | 295° |
| 2026-04-29 01:57 | 10.32048 | -83.95562 | 8172 ft | 188 kts | 295° |
| 2026-04-29 01:57 | 10.32562 | -83.96783 | 8154 ft | 189 kts | 295° |
| 2026-04-29 01:58 | 10.33082 | -83.98014 | 8165 ft | 189 kts | 295° |
| 2026-04-29 01:58 | 10.33596 | -83.99232 | 8158 ft | 188 kts | 295° |
| 2026-04-29 01:58 | 10.34114 | -84.00452 | 8174 ft | 187 kts | 295° |
| 2026-04-29 01:58 | 10.34629 | -84.01674 | 8180 ft | 187 kts | 295° |
| 2026-04-29 01:59 | 10.35136 | -84.02876 | 8180 ft | 187 kts | 295° |
| 2026-04-29 01:59 | 10.35652 | -84.04099 | 8184 ft | 188 kts | 295° |
| 2026-04-29 01:59 | 10.36168 | -84.05318 | 8173 ft | 188 kts | 295° |
| 2026-04-29 01:59 | 10.36684 | -84.06541 | 8173 ft | 188 kts | 295° |
| 2026-04-29 02:00 | 10.37201 | -84.07764 | 8169 ft | 188 kts | 295° |
| 2026-04-29 02:00 | 10.37716 | -84.08990 | 8161 ft | 189 kts | 295° |
| 2026-04-29 02:00 | 10.38234 | -84.10213 | 8168 ft | 189 kts | 295° |
| 2026-04-29 02:00 | 10.38755 | -84.11453 | 8165 ft | 189 kts | 296° |
| 2026-04-29 02:01 | 10.39271 | -84.12677 | 8150 ft | 189 kts | 296° |
| 2026-04-29 02:01 | 10.39764 | -84.13900 | 8166 ft | 188 kts | 288° |
| 2026-04-29 02:01 | 10.39986 | -84.15217 | 8178 ft | 189 kts | 281° |
| 2026-04-29 02:01 | 10.40184 | -84.16545 | 8186 ft | 190 kts | 279° |
| 2026-04-29 02:02 | 10.40367 | -84.17865 | 8171 ft | 190 kts | 280° |
| 2026-04-29 02:02 | 10.40551 | -84.19199 | 8166 ft | 191 kts | 280° |
| 2026-04-29 02:02 | 10.40740 | -84.20545 | 8160 ft | 191 kts | 279° |
| 2026-04-29 02:02 | 10.40927 | -84.21881 | 8146 ft | 191 kts | 279° |
| 2026-04-29 02:03 | 10.41113 | -84.23212 | 8144 ft | 191 kts | 279° |
| 2026-04-29 02:03 | 10.41301 | -84.24548 | 8147 ft | 190 kts | 280° |
| 2026-04-29 02:03 | 10.41487 | -84.25874 | 8144 ft | 190 kts | 279° |
| 2026-04-29 02:03 | 10.41675 | -84.27214 | 8152 ft | 189 kts | 279° |
| 2026-04-29 02:04 | 10.41861 | -84.28539 | 8154 ft | 189 kts | 280° |
| 2026-04-29 02:04 | 10.42045 | -84.29851 | 8153 ft | 190 kts | 280° |
| 2026-04-29 02:04 | 10.42231 | -84.31181 | 8146 ft | 190 kts | 280° |
| 2026-04-29 02:04 | 10.42419 | -84.32518 | 8138 ft | 191 kts | 280° |
| 2026-04-29 02:05 | 10.42606 | -84.33858 | 8129 ft | 191 kts | 280° |
| 2026-04-29 02:05 | 10.42794 | -84.35186 | 8134 ft | 190 kts | 280° |
| 2026-04-29 02:05 | 10.42982 | -84.36520 | 8128 ft | 190 kts | 280° |
| 2026-04-29 02:05 | 10.43170 | -84.37836 | 8122 ft | 189 kts | 280° |
| 2026-04-29 02:06 | 10.43355 | -84.39162 | 8118 ft | 189 kts | 280° |
| 2026-04-29 02:06 | 10.43539 | -84.40488 | 8113 ft | 190 kts | 280° |
| 2026-04-29 02:06 | 10.43725 | -84.41812 | 8111 ft | 190 kts | 280° |
| 2026-04-29 02:06 | 10.43909 | -84.43141 | 8098 ft | 191 kts | 280° |
| 2026-04-29 02:07 | 10.44097 | -84.44486 | 8083 ft | 190 kts | 280° |
| 2026-04-29 02:07 | 10.44285 | -84.45819 | 8073 ft | 190 kts | 280° |
| 2026-04-29 02:07 | 10.44468 | -84.47138 | 8082 ft | 190 kts | 280° |
| 2026-04-29 02:07 | 10.44656 | -84.48476 | 8063 ft | 190 kts | 280° |
| 2026-04-29 02:08 | 10.44842 | -84.49802 | 8061 ft | 190 kts | 280° |
| 2026-04-29 02:08 | 10.45026 | -84.51125 | 8070 ft | 189 kts | 280° |
| 2026-04-29 02:08 | 10.45212 | -84.52460 | 8069 ft | 190 kts | 280° |
| 2026-04-29 02:08 | 10.45397 | -84.53786 | 8069 ft | 190 kts | 280° |
| 2026-04-29 02:09 | 10.45583 | -84.55114 | 8065 ft | 190 kts | 280° |
| 2026-04-29 02:09 | 10.45768 | -84.56436 | 8069 ft | 189 kts | 280° |
| 2026-04-29 02:09 | 10.45952 | -84.57750 | 8071 ft | 189 kts | 280° |
| 2026-04-29 02:09 | 10.46134 | -84.59071 | 8083 ft | 189 kts | 279° |
| 2026-04-29 02:10 | 10.46319 | -84.60393 | 8088 ft | 189 kts | 281° |
| 2026-04-29 02:10 | 10.46507 | -84.61727 | 8085 ft | 190 kts | 280° |
| 2026-04-29 02:10 | 10.46693 | -84.63057 | 8085 ft | 190 kts | 280° |
| 2026-04-29 02:10 | 10.46877 | -84.64391 | 8089 ft | 190 kts | 280° |
| 2026-04-29 02:11 | 10.47061 | -84.65711 | 8097 ft | 189 kts | 280° |
| 2026-04-29 02:11 | 10.47246 | -84.67038 | 8102 ft | 189 kts | 280° |
| 2026-04-29 02:11 | 10.47431 | -84.68365 | 8105 ft | 189 kts | 280° |
| 2026-04-29 02:11 | 10.47616 | -84.69694 | 8109 ft | 189 kts | 280° |
| 2026-04-29 02:12 | 10.47797 | -84.71001 | 8111 ft | 189 kts | 280° |
| 2026-04-29 02:12 | 10.47983 | -84.72330 | 8111 ft | 189 kts | 280° |
| 2026-04-29 02:12 | 10.48166 | -84.73650 | 8109 ft | 189 kts | 280° |
| 2026-04-29 02:12 | 10.48352 | -84.74988 | 8109 ft | 189 kts | 279° |
| 2026-04-29 02:13 | 10.48535 | -84.76294 | 8104 ft | 189 kts | 280° |
| 2026-04-29 02:13 | 10.48719 | -84.77630 | 8100 ft | 189 kts | 280° |
| 2026-04-29 02:13 | 10.48901 | -84.78950 | 8098 ft | 189 kts | 280° |
| 2026-04-29 02:13 | 10.49085 | -84.80263 | 8091 ft | 189 kts | 280° |
| 2026-04-29 02:14 | 10.49268 | -84.81596 | 8084 ft | 189 kts | 280° |
| 2026-04-29 02:14 | 10.49453 | -84.82916 | 8083 ft | 189 kts | 280° |
| 2026-04-29 02:14 | 10.49635 | -84.84238 | 8087 ft | 188 kts | 280° |
| 2026-04-29 02:14 | 10.49820 | -84.85557 | 8093 ft | 188 kts | 280° |
| 2026-04-29 02:15 | 10.50002 | -84.86873 | 8090 ft | 188 kts | 280° |
| 2026-04-29 02:15 | 10.50186 | -84.88195 | 8082 ft | 188 kts | 280° |
| 2026-04-29 02:15 | 10.50367 | -84.89508 | 8075 ft | 188 kts | 280° |
| 2026-04-29 02:15 | 10.50549 | -84.90820 | 8073 ft | 189 kts | 280° |
| 2026-04-29 02:16 | 10.50732 | -84.92146 | 8073 ft | 189 kts | 280° |
| 2026-04-29 02:16 | 10.50914 | -84.93466 | 8070 ft | 189 kts | 280° |
| 2026-04-29 02:16 | 10.51098 | -84.94790 | 8066 ft | 189 kts | 280° |
| 2026-04-29 02:16 | 10.51280 | -84.96107 | 8067 ft | 189 kts | 280° |
| 2026-04-29 02:17 | 10.51463 | -84.97439 | 8065 ft | 189 kts | 280° |
| 2026-04-29 02:17 | 10.51646 | -84.98755 | 8062 ft | 188 kts | 280° |
| 2026-04-29 02:17 | 10.51829 | -85.00071 | 8058 ft | 188 kts | 280° |
| 2026-04-29 02:17 | 10.52010 | -85.01387 | 8057 ft | 188 kts | 280° |
| 2026-04-29 02:18 | 10.52193 | -85.02709 | 8053 ft | 188 kts | 280° |
| 2026-04-29 02:18 | 10.52375 | -85.04039 | 8054 ft | 188 kts | 280° |
| 2026-04-29 02:18 | 10.52558 | -85.05352 | 8048 ft | 188 kts | 281° |
| 2026-04-29 02:18 | 10.52735 | -85.06640 | 8032 ft | 179 kts | 281° |
| 2026-04-29 02:19 | 10.52907 | -85.07886 | 7875 ft | 178 kts | 281° |
| 2026-04-29 02:19 | 10.53076 | -85.09133 | 7702 ft | 178 kts | 281° |
| 2026-04-29 02:19 | 10.53247 | -85.10377 | 7531 ft | 177 kts | 281° |
| 2026-04-29 02:19 | 10.53418 | -85.11621 | 7359 ft | 177 kts | 281° |
| 2026-04-29 02:20 | 10.53590 | -85.12862 | 7190 ft | 177 kts | 281° |
| 2026-04-29 02:20 | 10.53759 | -85.14098 | 7022 ft | 177 kts | 281° |
| 2026-04-29 02:20 | 10.53930 | -85.15332 | 6853 ft | 177 kts | 281° |
| 2026-04-29 02:20 | 10.54098 | -85.16566 | 6683 ft | 177 kts | 281° |
| 2026-04-29 02:21 | 10.54272 | -85.17813 | 6508 ft | 178 kts | 281° |
| 2026-04-29 02:21 | 10.54442 | -85.19053 | 6337 ft | 178 kts | 281° |
| 2026-04-29 02:21 | 10.54613 | -85.20306 | 6168 ft | 178 kts | 282° |
| 2026-04-29 02:21 | 10.54785 | -85.21545 | 5998 ft | 178 kts | 281° |
| 2026-04-29 02:22 | 10.54958 | -85.22801 | 5830 ft | 179 kts | 281° |
| 2026-04-29 02:22 | 10.55130 | -85.24046 | 5658 ft | 179 kts | 282° |
| 2026-04-29 02:22 | 10.55302 | -85.25313 | 5492 ft | 180 kts | 282° |
| 2026-04-29 02:22 | 10.55475 | -85.26567 | 5330 ft | 180 kts | 281° |
| 2026-04-29 02:23 | 10.55650 | -85.27832 | 5165 ft | 180 kts | 281° |
| 2026-04-29 02:23 | 10.55822 | -85.29088 | 4992 ft | 181 kts | 281° |
| 2026-04-29 02:23 | 10.55995 | -85.30363 | 4816 ft | 181 kts | 281° |
| 2026-04-29 02:23 | 10.56169 | -85.31621 | 4644 ft | 178 kts | 282° |
| 2026-04-29 02:24 | 10.56338 | -85.32850 | 4482 ft | 175 kts | 282° |
| 2026-04-29 02:24 | 10.56504 | -85.34074 | 4316 ft | 174 kts | 281° |
| 2026-04-29 02:24 | 10.56672 | -85.35292 | 4149 ft | 173 kts | 281° |
| 2026-04-29 02:25 | 10.57002 | -85.37698 | 3819 ft | 172 kts | 281° |
| 2026-04-29 02:25 | 10.57166 | -85.38905 | 3648 ft | 172 kts | 281° |
| 2026-04-29 02:25 | 10.57333 | -85.40108 | 3478 ft | 171 kts | 281° |
| 2026-04-29 02:25 | 10.57496 | -85.41312 | 3316 ft | 172 kts | 280° |
| 2026-04-29 02:26 | 10.57662 | -85.42514 | 3151 ft | 172 kts | 280° |
| 2026-04-29 02:26 | 10.57827 | -85.43722 | 2982 ft | 172 kts | 281° |
| 2026-04-29 02:26 | 10.57989 | -85.44928 | 2812 ft | 173 kts | 281° |
| 2026-04-29 02:26 | 10.58152 | -85.46127 | 2647 ft | 173 kts | 281° |
| 2026-04-29 02:27 | 10.58288 | -85.47371 | 2477 ft | 175 kts | 266° |
| 2026-04-29 02:27 | 10.57926 | -85.48543 | 2322 ft | 175 kts | 250° |
| 2026-04-29 02:27 | 10.57502 | -85.49702 | 2166 ft | 176 kts | 247° |
| 2026-04-29 02:27 | 10.57058 | -85.50859 | 2010 ft | 176 kts | 248° |
| 2026-04-29 02:28 | 10.56609 | -85.52023 | 1845 ft | 177 kts | 248° |
| 2026-04-29 02:28 | 10.56161 | -85.53192 | 1674 ft | 177 kts | 248° |
| 2026-04-29 02:28 | 10.55719 | -85.54361 | 1500 ft | 177 kts | 248° |
| 2026-04-29 02:28 | 10.55281 | -85.55531 | 1348 ft | 176 kts | 248° |
| 2026-04-29 02:29 | 10.54849 | -85.56687 | 1195 ft | 175 kts | 248° |
| 2026-04-29 02:29 | 10.54423 | -85.57815 | 1023 ft | 165 kts | 248° |
| 2026-04-29 02:29 | 10.54020 | -85.58881 | 861 ft | 159 kts | 248° |
| 2026-04-29 02:29 | 10.53625 | -85.59919 | 781 ft | 149 kts | 248° |
| 2026-04-29 02:30 | 10.53278 | -85.60862 | 778 ft | 139 kts | 253° |
| 2026-04-29 02:30 | 10.53188 | -85.61822 | 752 ft | 139 kts | 281° |
| 2026-04-29 02:30 | 10.53517 | -85.62729 | 736 ft | 134 kts | 307° |
| 2026-04-29 02:30 | 10.54148 | -85.63361 | 764 ft | 122 kts | 339° |
| 2026-04-29 02:31 | 10.54924 | -85.63515 | 770 ft | 108 kts | 18° |
| 2026-04-29 02:31 | 10.55608 | -85.63248 | 767 ft | 102 kts | 43° |
| 2026-04-29 02:31 | 10.56174 | -85.62742 | 691 ft | 115 kts | 52° |
| 2026-04-29 02:31 | 10.56597 | -85.62072 | 727 ft | 110 kts | 62° |
| 2026-04-29 02:32 | 10.56892 | -85.61347 | 713 ft | 111 kts | 73° |
| 2026-04-29 02:32 | 10.57134 | -85.60596 | 710 ft | 112 kts | 72° |
| 2026-04-29 02:32 | 10.57383 | -85.59856 | 727 ft | 110 kts | 72° |
| 2026-04-29 02:32 | 10.57645 | -85.59114 | 715 ft | 111 kts | 70° |
| 2026-04-29 02:33 | 10.57921 | -85.58384 | 648 ft | 110 kts | 70° |
| 2026-04-29 02:33 | 10.58188 | -85.57678 | 578 ft | 101 kts | 71° |
| 2026-04-29 02:33 | 10.58415 | -85.57058 | 531 ft | 88 kts | 72° |
| 2026-04-29 02:33 | 10.58612 | -85.56502 | 440 ft | 77 kts | 72° |
| 2026-04-29 02:34 | 10.58795 | -85.55992 | 363 ft | 76 kts | 72° |
| 2026-04-29 02:34 | 10.58978 | -85.55463 | 305 ft | 84 kts | 72° |
| 2026-04-29 02:34 | 10.59180 | -85.54899 | 270 ft | 82 kts | 72° |
| 2026-04-29 02:34 | 10.59355 | -85.54393 | 261 ft | 65 kts | 69° |
| 2026-04-29 02:35 | 10.59488 | -85.54026 | 265 ft | 47 kts | 67° |
| 2026-04-29 02:35 | 10.59591 | -85.53821 | 266 ft | 21 kts | 20° |
| 2026-04-29 02:35 | 10.59720 | -85.53858 | 263 ft | 19 kts | 339° |
| 2026-04-29 02:35 | 10.59795 | -85.53843 | 262 ft | 10 kts | 64° |
| 2026-04-29 02:36 | 10.59821 | -85.53772 | 264 ft | 11 kts | 71° |
| 2026-04-29 02:36 | 10.59862 | -85.53709 | 265 ft | 11 kts | 5° |
| 2026-04-29 02:36 | 10.59939 | -85.53723 | 262 ft | 4 kts | 340° |
| 2026-04-29 02:36 | 10.59946 | -85.53725 | 261 ft | 0 kts | 342° |